Time;durP1;ratioP1;P1;durP2;ratioP2;P2;SDS_P1;SDS_P2;PMS_P1;PMS_P2;Temp;Humidity;BMP_temperature;BMP_pressure;BME280_temperature;BME280_humidity;BME280_pressure;Samples;Min_cycle;Max_cycle;Signal;HPM_P1;HPM_P2
2023/12/31 00:02:07;;;;;;;33.10;22.48;;;;;;;3.29;100.00;93398.00;5047726;28;20150;-72
2023/12/31 00:04:34;;;;;;;30.52;19.92;;;;;;;3.31;100.00;93392.78;5051602;28;20044;-72
2023/12/31 00:07:02;;;;;;;33.03;23.33;;;;;;;3.37;100.00;93392.13;5050600;28;20421;-73
2023/12/31 00:09:29;;;;;;;44.33;27.27;;;;;;;3.34;100.00;93395.78;5047520;28;20049;-72
2023/12/31 00:11:56;;;;;;;36.65;23.48;;;;;;;3.15;100.00;93366.44;5049743;28;20798;-72
2023/12/31 00:14:23;;;;;;;32.38;21.80;;;;;;;3.34;100.00;93395.00;5053536;28;20451;-72
2023/12/31 00:16:51;;;;;;;27.77;19.00;;;;;;;3.32;100.00;93394.34;5060897;28;20115;-72
2023/12/31 00:19:18;;;;;;;29.52;18.73;;;;;;;3.36;100.00;93397.34;5058569;28;21001;-72
2023/12/31 00:21:45;;;;;;;32.85;20.48;;;;;;;3.37;100.00;93404.81;5054514;28;20045;-72
2023/12/31 00:24:13;;;;;;;42.92;25.80;;;;;;;3.39;100.00;93399.59;5052174;28;20135;-73
2023/12/31 00:26:40;;;;;;;43.53;24.02;;;;;;;3.27;100.00;93396.56;5048761;28;20516;-73
2023/12/31 00:29:07;;;;;;;38.80;23.00;;;;;;;3.26;100.00;93397.53;5047703;28;20041;-72
2023/12/31 00:31:34;;;;;;;25.83;17.88;;;;;;;3.21;100.00;93391.19;5050707;28;20095;-73
2023/12/31 00:34:01;;;;;;;25.02;16.83;;;;;;;3.17;100.00;93395.00;5054911;28;20051;-72
2023/12/31 00:36:28;;;;;;;25.60;17.30;;;;;;;3.10;100.00;93395.81;5051970;28;20049;-72
2023/12/31 00:38:56;;;;;;;28.35;19.92;;;;;;;2.96;100.00;93392.16;5055963;28;20092;-73
2023/12/31 00:41:24;;;;;;;27.50;18.33;;;;;;;3.05;100.00;93412.28;5046741;28;20458;-72
2023/12/31 00:43:51;;;;;;;28.63;19.55;;;;;;;3.01;100.00;93397.56;5048425;28;20517;-72
2023/12/31 00:46:18;;;;;;;39.47;25.85;;;;;;;2.89;100.00;93405.47;5049335;28;20140;-72
2023/12/31 00:48:45;;;;;;;36.25;24.27;;;;;;;2.91;100.00;93405.28;5053251;28;20044;-72
2023/12/31 00:51:12;;;;;;;37.10;25.63;;;;;;;2.83;100.00;93397.69;5047991;28;20041;-73
2023/12/31 00:53:39;;;;;;;39.15;28.63;;;;;;;2.65;100.00;93391.78;5057444;28;20127;-73
2023/12/31 00:56:06;;;;;;;43.42;30.75;;;;;;;2.76;100.00;93397.53;5055200;28;20048;-73
2023/12/31 00:58:35;;;;;;;46.38;28.95;;;;;;;2.84;100.00;93396.72;5059616;28;20080;-72
2023/12/31 01:01:02;;;;;;;44.35;29.48;;;;;;;2.88;100.00;93388.66;5053799;28;20052;-72
2023/12/31 01:03:28;;;;;;;47.40;32.10;;;;;;;2.85;100.00;93394.06;5054189;28;20048;-73
2023/12/31 01:06:05;;;;;;;48.50;32.00;;;;;;;2.89;100.00;93382.63;5050346;28;20140;-73
2023/12/31 01:08:31;;;;;;;51.95;33.53;;;;;;;2.97;100.00;93375.97;5051237;28;20490;-73
2023/12/31 01:10:58;;;;;;;54.88;33.70;;;;;;;3.00;100.00;93385.81;5053341;28;20139;-73
2023/12/31 01:13:25;;;;;;;51.45;31.98;;;;;;;2.99;100.00;93382.47;5059466;28;20414;-73
2023/12/31 01:15:54;;;;;;;57.72;34.63;;;;;;;3.03;100.00;93383.75;5061104;28;20049;-73
2023/12/31 01:18:21;;;;;;;57.88;33.75;;;;;;;3.06;100.00;93387.72;5053034;28;20053;-72
2023/12/31 01:20:47;;;;;;;66.57;38.38;;;;;;;3.06;100.00;93388.50;5058860;28;20055;-72
2023/12/31 01:23:14;;;;;;;63.45;36.70;;;;;;;3.02;100.00;93384.69;5052263;28;20071;-72
2023/12/31 01:25:43;;;;;;;55.33;32.00;;;;;;;3.04;100.00;93376.91;5053702;28;20135;-72
2023/12/31 01:28:10;;;;;;;57.05;32.65;;;;;;;3.01;100.00;93378.03;5059637;28;20753;-72
2023/12/31 01:30:36;;;;;;;60.65;34.65;;;;;;;3.00;100.00;93368.06;5054760;28;20064;-72
2023/12/31 01:33:05;;;;;;;53.80;33.55;;;;;;;3.02;100.00;93373.75;5050263;28;20172;-72
2023/12/31 01:35:32;;;;;;;49.97;32.47;;;;;;;2.96;100.00;93367.56;5050483;28;20422;-73
2023/12/31 01:37:59;;;;;;;53.22;33.03;;;;;;;2.94;100.00;93372.00;5051655;28;20051;-72
2023/12/31 01:40:26;;;;;;;53.08;34.03;;;;;;;2.91;100.00;93377.38;5050902;28;20055;-73
2023/12/31 01:42:53;;;;;;;54.88;33.70;;;;;;;2.96;100.00;93385.31;5049397;28;20839;-73
2023/12/31 01:45:20;;;;;;;61.28;36.80;;;;;;;3.00;100.00;93378.97;5050083;28;20049;-73
2023/12/31 01:47:47;;;;;;;66.35;40.40;;;;;;;3.01;100.00;93374.72;5051722;28;20055;-73
2023/12/31 01:50:16;;;;;;;70.45;41.63;;;;;;;2.99;100.00;93372.31;5063327;28;20072;-72
2023/12/31 01:52:44;;;;;;;70.30;41.00;;;;;;;2.99;100.00;93364.72;5052789;28;20516;-72
2023/12/31 01:55:13;;;;;;;58.78;36.72;;;;;;;2.96;100.00;93359.94;5050917;28;20045;-72
2023/12/31 01:57:41;;;;;;;51.13;32.75;;;;;;;3.03;100.00;93360.91;5050053;28;20057;-73
2023/12/31 02:00:09;;;;;;;44.95;30.60;;;;;;;3.01;100.00;93342.50;5052644;28;20059;-72
2023/12/31 02:02:37;;;;;;;49.58;30.02;;;;;;;3.06;100.00;93354.72;5054495;28;20316;-73
2023/12/31 02:05:05;;;;;;;41.25;26.40;;;;;;;3.10;100.00;93355.19;5048959;28;20045;-72
2023/12/31 02:07:33;;;;;;;42.42;26.00;;;;;;;3.12;100.00;93354.09;5050348;28;20128;-72
2023/12/31 02:10:00;;;;;;;40.25;26.88;;;;;;;3.13;100.00;93355.66;5052239;28;20051;-72
2023/12/31 02:12:27;;;;;;;35.88;23.73;;;;;;;3.09;100.00;93341.69;5053519;28;20047;-73
2023/12/31 02:14:54;;;;;;;44.75;28.30;;;;;;;3.09;100.00;93343.47;5056035;28;20520;-73
2023/12/31 02:17:21;;;;;;;37.05;23.83;;;;;;;2.98;100.00;93329.34;5053833;28;20052;-72
2023/12/31 02:19:48;;;;;;;37.08;24.83;;;;;;;3.03;100.00;93337.28;5060424;28;20063;-73
2023/12/31 02:22:15;;;;;;;40.00;24.85;;;;;;;3.03;100.00;93333.00;5049931;28;20060;-72
2023/12/31 02:24:48;;;;;;;35.72;22.60;;;;;;;3.02;100.00;93340.75;5052278;28;20052;-73
2023/12/31 02:27:17;;;;;;;37.20;25.00;;;;;;;2.96;100.00;93331.25;5051417;28;20049;-73
2023/12/31 02:29:44;;;;;;;40.50;24.98;;;;;;;2.97;100.00;93337.91;5050357;28;20450;-73
2023/12/31 02:32:11;;;;;;;37.85;24.50;;;;;;;2.94;100.00;93332.22;5059109;28;20041;-73
2023/12/31 02:34:37;;;;;;;39.80;25.42;;;;;;;2.81;100.00;93316.66;5051378;28;20049;-73
2023/12/31 02:37:04;;;;;;;45.05;28.75;;;;;;;2.82;100.00;93325.84;5048896;28;20051;-73
2023/12/31 02:39:31;;;;;;;53.67;34.10;;;;;;;2.81;100.00;93326.81;5051188;28;20053;-73
2023/12/31 02:41:58;;;;;;;45.30;28.10;;;;;;;2.79;100.00;93333.78;5050384;28;20774;-73
2023/12/31 02:44:27;;;;;;;45.20;30.10;;;;;;;2.51;100.00;93279.09;5049923;28;20040;-73
2023/12/31 02:46:53;;;;;;;47.78;31.98;;;;;;;2.72;100.00;93317.63;5058355;28;20057;-73
2023/12/31 02:49:20;;;;;;;40.97;28.45;;;;;;;2.70;100.00;93322.06;5048997;28;20048;-73
2023/12/31 02:51:47;;;;;;;42.80;28.70;;;;;;;2.63;100.00;93327.75;5052404;28;20053;-73
2023/12/31 02:54:14;;;;;;;38.90;26.85;;;;;;;2.66;100.00;93327.47;5056106;28;20045;-72
2023/12/31 02:56:41;;;;;;;40.47;28.67;;;;;;;2.68;100.00;93329.81;5052994;28;20128;-72
2023/12/31 02:59:08;;;;;;;37.47;26.63;;;;;;;2.65;100.00;93330.16;5049728;28;20510;-73
2023/12/31 03:01:37;;;;;;;37.58;27.63;;;;;;;2.57;100.00;93320.78;5050807;28;20486;-73
2023/12/31 03:04:05;;;;;;;44.72;30.70;;;;;;;2.57;100.00;93328.41;5047972;28;20048;-73
2023/12/31 03:06:33;;;;;;;46.60;32.05;;;;;;;2.60;100.00;93332.34;5053469;28;20052;-74
2023/12/31 03:09:02;;;;;;;53.30;37.08;;;;;;;2.38;100.00;93296.53;5055274;28;20506;-74
2023/12/31 03:11:29;;;;;;;41.80;30.65;;;;;;;2.48;100.00;93334.41;5051687;28;20044;-73
2023/12/31 03:13:56;;;;;;;44.53;30.02;;;;;;;2.37;100.00;93320.28;5061325;28;20051;-73
2023/12/31 03:16:24;;;;;;;40.85;31.02;;;;;;;2.36;100.00;93326.31;5060265;28;20127;-73
2023/12/31 03:18:54;;;;;;;46.10;31.67;;;;;;;2.15;100.00;93322.47;5050969;28;20052;-74
2023/12/31 03:21:21;;;;;;;43.00;29.63;;;;;;;2.07;100.00;93322.44;5051891;28;20567;-73
2023/12/31 03:23:48;;;;;;;47.88;32.13;;;;;;;1.99;100.00;93328.28;5048285;28;20136;-73
2023/12/31 03:26:15;;;;;;;44.50;31.25;;;;;;;2.05;100.00;93324.34;5052795;28;20047;-73
2023/12/31 03:28:42;;;;;;;48.15;33.75;;;;;;;2.03;100.00;93316.09;5049638;28;20418;-73
2023/12/31 03:31:10;;;;;;;40.03;28.88;;;;;;;2.07;100.00;93327.50;5049534;28;20121;-73
2023/12/31 03:33:37;;;;;;;42.65;29.08;;;;;;;2.08;100.00;93324.81;5050369;28;20495;-73
2023/12/31 03:36:07;;;;;;;44.13;29.98;;;;;;;2.17;100.00;93328.16;5048135;28;20506;-73
2023/12/31 03:38:34;;;;;;;40.13;28.40;;;;;;;2.19;100.00;93326.28;5054577;28;20859;-74
2023/12/31 03:41:01;;;;;;;39.50;29.50;;;;;;;2.19;100.00;93326.28;5048717;28;20058;-73
2023/12/31 03:43:28;;;;;;;42.22;29.77;;;;;;;2.16;100.00;93326.59;5049038;28;20049;-73
2023/12/31 03:45:54;;;;;;;41.70;27.90;;;;;;;2.19;100.00;93328.81;5059467;28;20443;-73
2023/12/31 03:48:21;;;;;;;40.03;28.05;;;;;;;2.16;100.00;93331.66;5048565;28;20041;-73
2023/12/31 03:50:48;;;;;;;40.53;27.45;;;;;;;2.21;100.00;93339.59;5054258;28;20055;-73
2023/12/31 03:53:17;;;;;;;38.80;27.38;;;;;;;2.22;100.00;93338.63;5055802;28;20055;-73
2023/12/31 03:55:43;;;;;;;39.08;26.08;;;;;;;2.19;100.00;93335.63;5049106;28;20053;-73
2023/12/31 03:58:10;;;;;;;28.88;20.67;;;;;;;2.13;100.00;93334.50;5060504;28;20123;-73
2023/12/31 04:00:37;;;;;;;28.67;20.42;;;;;;;2.03;100.00;93323.72;5048811;28;20084;-73
2023/12/31 04:03:05;;;;;;;26.42;18.98;;;;;;;2.04;100.00;93337.97;5053317;28;20045;-73
2023/12/31 04:05:32;;;;;;;27.67;19.23;;;;;;;2.10;100.00;93342.41;5050248;28;20877;-73
2023/12/31 04:07:59;;;;;;;25.27;17.33;;;;;;;2.04;100.00;93337.97;5054455;28;20059;-73
2023/12/31 04:10:27;;;;;;;29.75;20.10;;;;;;;2.04;100.00;93341.25;5048403;28;20503;-73
2023/12/31 04:12:57;;;;;;;29.63;21.05;;;;;;;1.99;100.00;93341.75;5053177;28;20061;-73
2023/12/31 04:15:24;;;;;;;34.78;25.83;;;;;;;1.96;100.00;93346.31;5053960;28;20413;-73
2023/12/31 04:17:52;;;;;;;30.75;22.27;;;;;;;1.82;100.00;93335.84;5048327;28;20070;-75
2023/12/31 04:20:19;;;;;;;28.17;20.00;;;;;;;1.89;100.00;93353.72;5050001;28;20139;-73
2023/12/31 04:22:46;;;;;;;24.70;16.83;;;;;;;1.93;100.00;93356.75;5057232;28;20586;-73
2023/12/31 04:25:13;;;;;;;24.73;16.48;;;;;;;1.90;100.00;93357.06;5057485;28;20051;-73
2023/12/31 04:27:44;;;;;;;28.00;18.40;;;;;;;1.87;100.00;93358.94;5060575;28;20045;-74
2023/12/31 04:30:12;;;;;;;25.85;18.05;;;;;;;1.77;100.00;93349.88;5056851;28;20041;-74
2023/12/31 04:32:39;;;;;;;25.02;16.45;;;;;;;1.86;100.00;93361.66;5055383;28;20514;-74
2023/12/31 04:35:07;;;;;;;27.40;19.73;;;;;;;1.85;100.00;93368.44;5051793;28;20123;-74
2023/12/31 04:37:34;;;;;;;28.60;18.85;;;;;;;1.83;100.00;93365.28;5056579;28;20060;-74
2023/12/31 04:40:01;;;;;;;24.85;17.58;;;;;;;1.82;100.00;93366.22;5056628;28;20139;-74
2023/12/31 04:42:28;;;;;;;37.83;29.13;;;;;;;1.75;100.00;93369.53;5061540;28;20494;-73
2023/12/31 04:44:59;;;;;;;38.08;26.92;;;;;;;1.67;100.00;93362.69;5056829;28;20128;-73
2023/12/31 04:47:26;;;;;;;65.22;39.10;;;;;;;1.66;100.00;93361.09;5059529;28;20425;-73
2023/12/31 04:49:53;;;;;;;71.03;39.90;;;;;;;1.71;100.00;93369.81;5059273;28;20045;-73
2023/12/31 04:52:20;;;;;;;90.60;60.35;;;;;;;1.69;100.00;93371.72;5058370;28;20062;-73
2023/12/31 04:54:47;;;;;;;66.90;41.63;;;;;;;1.64;100.00;93368.84;5053281;28;20054;-73
2023/12/31 04:57:14;;;;;;;58.22;39.20;;;;;;;1.72;100.00;93368.84;5057045;28;20425;-73
2023/12/31 04:59:43;;;;;;;53.60;35.63;;;;;;;1.72;100.00;93373.91;5059650;28;20207;-73
2023/12/31 05:02:14;;;;;;;43.75;29.50;;;;;;;1.71;100.00;93374.09;5054783;28;20497;-73
2023/12/31 05:04:41;;;;;;;36.60;25.15;;;;;;;1.49;100.00;93347.53;5053443;28;20216;-73
2023/12/31 05:07:09;;;;;;;33.53;23.65;;;;;;;1.63;100.00;93372.31;5050489;28;20049;-73
2023/12/31 05:09:36;;;;;;;44.85;28.92;;;;;;;1.23;100.00;93318.78;5064780;28;20850;-74
2023/12/31 05:12:03;;;;;;;76.18;41.55;;;;;;;1.46;100.00;93367.16;5057427;28;20072;-73
2023/12/31 05:14:30;;;;;;;38.83;21.50;;;;;;;1.53;100.00;93382.53;5054820;28;20118;-74
2023/12/31 05:16:57;;;;;;;29.33;18.60;;;;;;;1.37;100.00;93365.50;5056976;28;20518;-73
2023/12/31 05:19:26;;;;;;;22.27;15.98;;;;;;;1.46;100.00;93381.53;5059384;28;20062;-74
2023/12/31 05:21:52;;;;;;;28.90;18.42;;;;;;;1.47;100.00;93393.25;5059648;28;20056;-74
2023/12/31 05:24:19;;;;;;;22.50;16.45;;;;;;;1.42;100.00;93385.31;5055846;28;20060;-74
2023/12/31 05:26:46;;;;;;;23.75;16.67;;;;;;;1.39;100.00;93386.41;5061976;28;20493;-75
2023/12/31 05:29:13;;;;;;;29.08;17.40;;;;;;;1.42;100.00;93387.84;5060939;28;20051;-74
2023/12/31 05:31:40;;;;;;;26.15;18.08;;;;;;;1.44;100.00;93383.44;5052576;28;20123;-74
2023/12/31 05:34:07;;;;;;;26.27;19.42;;;;;;;1.41;100.00;93378.66;5058823;28;20076;-74
2023/12/31 05:36:35;;;;;;;26.60;18.65;;;;;;;1.41;100.00;93389.59;5052329;28;20494;-74
2023/12/31 05:39:02;;;;;;;21.85;15.52;;;;;;;1.37;100.00;93384.97;5053908;28;20053;-73
2023/12/31 05:41:29;;;;;;;17.75;12.82;;;;;;;1.30;100.00;93387.31;5063929;28;20123;-73
2023/12/31 05:43:56;;;;;;;16.40;12.25;;;;;;;1.29;100.00;93378.13;5056816;28;20051;-74
2023/12/31 05:46:23;;;;;;;15.35;9.82;;;;;;;1.29;100.00;93381.44;5061221;28;20047;-73
2023/12/31 05:48:50;;;;;;;14.80;9.88;;;;;;;1.27;100.00;93382.53;5050595;28;20052;-73
2023/12/31 05:51:17;;;;;;;18.85;10.55;;;;;;;1.27;100.00;93387.59;5052688;28;20059;-73
2023/12/31 05:53:45;;;;;;;18.63;11.57;;;;;;;1.25;100.00;93372.56;5055037;28;20090;-73
2023/12/31 05:56:12;;;;;;;15.07;10.52;;;;;;;1.28;100.00;93374.78;5057757;28;20045;-73
2023/12/31 05:58:42;;;;;;;16.15;11.13;;;;;;;1.26;100.00;93376.69;5062695;28;20056;-73
2023/12/31 06:01:09;;;;;;;17.10;12.52;;;;;;;1.26;100.00;93370.81;5050641;28;20499;-73
2023/12/31 06:03:36;;;;;;;21.58;15.60;;;;;;;1.23;100.00;93371.09;5052584;28;20051;-73
2023/12/31 06:06:04;;;;;;;33.95;24.95;;;;;;;1.26;100.00;93374.16;5059092;28;20135;-73
2023/12/31 06:08:31;;;;;;;30.00;20.05;;;;;;;1.26;100.00;93371.63;5052840;28;20045;-73
2023/12/31 06:10:59;;;;;;;34.45;23.00;;;;;;;1.20;100.00;93360.34;5058224;28;20411;-73
2023/12/31 06:13:26;;;;;;;37.97;28.35;;;;;;;1.22;100.00;93370.34;5051953;28;20056;-73
2023/12/31 06:15:53;;;;;;;41.17;29.63;;;;;;;1.24;100.00;93367.66;5053725;28;20048;-73
2023/12/31 06:18:20;;;;;;;39.40;27.02;;;;;;;1.28;100.00;93371.47;5055272;28;20360;-73
2023/12/31 06:20:47;;;;;;;41.22;29.13;;;;;;;1.18;100.00;93351.31;5057868;28;20063;-73
2023/12/31 06:23:14;;;;;;;40.95;29.63;;;;;;;1.28;100.00;93368.94;5054321;28;20474;-73
2023/12/31 06:25:41;;;;;;;41.55;28.65;;;;;;;1.29;100.00;93368.78;5051061;28;21052;-73
2023/12/31 06:28:12;;;;;;;43.97;29.67;;;;;;;1.27;100.00;93359.75;5051708;28;21117;-73
2023/12/31 06:30:39;;;;;;;36.55;26.83;;;;;;;1.30;100.00;93367.84;5054583;28;20516;-74
2023/12/31 06:33:06;;;;;;;30.35;22.90;;;;;;;1.30;100.00;93372.91;5052242;28;20123;-73
2023/12/31 06:35:33;;;;;;;34.95;24.95;;;;;;;1.32;100.00;93376.09;5051202;28;20048;-73
2023/12/31 06:38:00;;;;;;;28.45;21.02;;;;;;;1.35;100.00;93374.19;5051939;28;20041;-73
2023/12/31 06:40:26;;;;;;;23.77;20.27;;;;;;;1.33;100.00;93371.81;5051331;28;20048;-73
2023/12/31 06:42:53;;;;;;;25.58;19.60;;;;;;;1.35;100.00;93379.25;5057359;28;20053;-73
2023/12/31 06:45:22;;;;;;;28.63;20.33;;;;;;;1.33;100.00;93374.34;5049979;28;20049;-73
2023/12/31 06:47:49;;;;;;;30.40;22.40;;;;;;;1.31;100.00;93376.25;5050816;28;20506;-73
2023/12/31 06:50:16;;;;;;;28.73;22.58;;;;;;;1.31;100.00;93376.25;5052208;28;20037;-73
2023/12/31 06:52:42;;;;;;;31.77;23.63;;;;;;;1.28;100.00;93371.47;5048074;28;20056;-73
2023/12/31 06:55:11;;;;;;;32.17;23.00;;;;;;;1.43;100.00;93377.56;5055442;28;20441;-73
2023/12/31 06:57:38;;;;;;;29.02;20.70;;;;;;;1.51;100.00;93370.97;5061502;28;20049;-73
2023/12/31 07:00:07;;;;;;;29.83;21.38;;;;;;;1.56;100.00;93367.06;5054827;28;20045;-73
2023/12/31 07:02:37;;;;;;;29.23;18.25;;;;;;;1.64;100.00;93368.84;5049276;28;20052;-74
2023/12/31 07:05:05;;;;;;;25.02;17.77;;;;;;;1.71;100.00;93374.88;5055724;28;20044;-74
2023/12/31 07:07:32;;;;;;;23.02;16.17;;;;;;;1.81;100.00;93374.75;5054489;28;20127;-74
2023/12/31 07:09:58;;;;;;;28.90;19.65;;;;;;;1.81;100.00;93359.56;5053372;28;20056;-73
2023/12/31 07:12:25;;;;;;;33.13;22.90;;;;;;;2.00;100.00;93381.31;5051698;28;20049;-73
2023/12/31 07:14:52;;;;;;;37.25;26.02;;;;;;;2.11;100.00;93379.47;5057892;28;20049;-73
2023/12/31 07:17:19;;;;;;;37.85;28.63;;;;;;;2.16;100.00;93377.25;5051356;28;20056;-73
2023/12/31 07:19:47;;;;;;;45.20;31.27;;;;;;;2.29;100.00;93381.91;5051725;28;20051;-73
2023/12/31 07:22:14;;;;;;;40.10;30.48;;;;;;;2.34;100.00;93376.34;5055784;28;20540;-73
2023/12/31 07:24:41;;;;;;;39.90;30.58;;;;;;;2.39;100.00;93372.44;5058411;28;20051;-73
2023/12/31 07:27:09;;;;;;;39.65;28.35;;;;;;;2.36;100.00;93379.56;5053447;28;20494;-73
2023/12/31 07:29:36;;;;;;;44.17;30.92;;;;;;;2.25;100.00;93371.28;5049613;28;20053;-72
2023/12/31 07:32:03;;;;;;;65.32;54.33;;;;;;;2.01;100.00;93374.53;5049001;28;20053;-73
2023/12/31 07:34:30;;;;;;;102.47;66.63;;;;;;;1.82;100.00;93371.31;5053159;28;20131;-73
2023/12/31 07:36:59;;;;;;;65.10;44.78;;;;;;;1.79;100.00;93369.06;5054402;28;20433;-73
2023/12/31 07:39:26;;;;;;;52.75;38.90;;;;;;;1.87;100.00;93373.38;5065124;28;20073;-73
2023/12/31 07:41:53;;;;;;;50.25;39.05;;;;;;;2.06;100.00;93374.88;5051419;28;20049;-73
2023/12/31 07:44:20;;;;;;;52.03;38.63;;;;;;;2.23;100.00;93370.63;5055374;28;20044;-73
2023/12/31 07:46:47;;;;;;;54.15;40.40;;;;;;;2.31;100.00;93356.41;5050715;28;20045;-73
2023/12/31 07:49:14;;;;;;;70.55;47.42;;;;;;;2.40;100.00;93381.63;5051041;28;20056;-73
2023/12/31 07:51:41;;;;;;;62.60;42.83;;;;;;;2.58;100.00;93378.16;5058841;28;20052;-73
2023/12/31 07:54:09;;;;;;;48.65;33.35;;;;;;;2.55;100.00;93375.94;5052538;28;20044;-73
2023/12/31 07:56:36;;;;;;;63.63;43.38;;;;;;;2.26;100.00;93344.19;5047204;28;20045;-73
2023/12/31 07:59:04;;;;;;;80.63;56.20;;;;;;;2.31;100.00;93380.00;5049574;28;20059;-73
2023/12/31 08:01:31;;;;;;;72.93;51.03;;;;;;;2.46;100.00;93377.66;5053358;28;20472;-73
2023/12/31 08:03:58;;;;;;;63.00;44.72;;;;;;;2.64;100.00;93382.59;5047552;28;20135;-73
2023/12/31 08:06:26;;;;;;;64.97;45.35;;;;;;;2.62;100.00;93361.69;5047911;28;20091;-73
2023/12/31 08:08:53;;;;;;;58.67;42.42;;;;;;;2.80;100.00;93381.03;5055840;28;20045;-73
2023/12/31 08:11:21;;;;;;;50.80;36.65;;;;;;;2.80;100.00;93373.44;5049713;28;20045;-74
2023/12/31 08:13:49;;;;;;;45.95;34.25;;;;;;;2.95;100.00;93368.50;5053630;28;20055;-73
2023/12/31 08:16:16;;;;;;;51.15;37.08;;;;;;;3.06;100.00;93369.97;5051754;28;20091;-73
2023/12/31 08:18:57;;;;;;;61.58;38.85;;;;;;;3.16;100.00;93373.09;5055895;28;20041;-74
2023/12/31 08:21:23;;;;;;;81.38;47.80;;;;;;;3.38;100.00;93393.72;5057179;28;20141;-74
2023/12/31 08:23:50;;;;;;;76.70;45.40;;;;;;;3.47;100.00;93384.31;5051132;28;20061;-74
2023/12/31 08:26:17;;;;;;;60.55;36.28;;;;;;;3.74;100.00;93390.00;5055437;28;20056;-74
2023/12/31 08:28:45;;;;;;;48.03;30.38;;;;;;;3.81;100.00;93387.59;5049009;28;20047;-74
2023/12/31 08:31:14;;;;;;;48.80;31.63;;;;;;;3.94;100.00;93387.09;5058067;28;20520;-74
2023/12/31 08:33:41;;;;;;;65.65;34.53;;;;;;;4.13;100.00;93386.69;5051872;28;20045;-74
2023/12/31 08:36:08;;;;;;;65.43;35.20;;;;;;;4.07;100.00;93366.25;5049465;28;20044;-74
2023/12/31 08:38:35;;;;;;;62.58;35.78;;;;;;;4.35;100.00;93376.75;5050476;28;20055;-74
2023/12/31 08:41:02;;;;;;;60.00;34.65;;;;;;;4.04;100.00;93348.75;5048820;28;20045;-74
2023/12/31 08:43:29;;;;;;;57.03;33.70;;;;;;;4.25;100.00;93389.66;5048236;28;20720;-74
2023/12/31 08:45:57;;;;;;;49.45;31.80;;;;;;;4.18;100.00;93378.59;5047812;28;20051;-74
2023/12/31 08:48:24;;;;;;;57.42;31.75;;;;;;;4.11;100.00;93395.44;5045530;28;20053;-74
2023/12/31 08:50:51;;;;;;;50.50;28.20;;;;;;;4.20;100.00;93378.41;5051321;28;20053;-74
2023/12/31 08:53:19;;;;;;;49.28;28.40;;;;;;;4.45;100.00;93389.25;5049658;28;20049;-74
2023/12/31 08:55:47;;;;;;;48.13;27.25;;;;;;;4.57;100.00;93388.88;5048155;28;20084;-75
2023/12/31 08:58:14;;;;;;;44.47;25.05;;;;;;;4.48;100.00;93380.47;5051940;28;20482;-74
2023/12/31 09:00:41;;;;;;;42.33;23.83;;;;;;;4.47;100.00;93384.00;5055082;28;20422;-74
2023/12/31 09:03:10;;;;;;;43.38;27.60;;;;;;;4.58;100.00;93382.84;5050234;28;20131;-74
2023/12/31 09:05:37;;;;;;;56.97;30.02;;;;;;;4.79;100.00;93379.66;5048227;28;20048;-75
2023/12/31 09:08:04;;;;;;;47.55;31.02;;;;;;;4.93;100.00;93376.41;5053000;28;20619;-74
2023/12/31 09:10:31;;;;;;;45.35;27.30;;;;;;;4.97;100.00;93374.28;5051818;28;20051;-74
2023/12/31 09:12:59;;;;;;;50.33;31.45;;;;;;;5.03;100.00;93365.16;5053644;28;20048;-74
2023/12/31 09:15:26;;;;;;;49.42;34.30;;;;;;;5.06;100.00;93357.97;5057944;28;20728;-74
2023/12/31 09:17:53;;;;;;;52.28;33.78;;;;;;;5.15;100.00;93356.19;5051271;28;20048;-75
2023/12/31 09:20:22;;;;;;;62.35;36.30;;;;;;;5.44;100.00;93359.75;5052320;28;20041;-75
2023/12/31 09:22:52;;;;;;;58.08;34.53;;;;;;;5.35;100.00;93353.94;5055267;28;20045;-75
2023/12/31 09:25:20;;;;;;;54.13;31.63;;;;;;;5.38;100.00;93360.44;5052876;28;20045;-75
2023/12/31 09:27:47;;;;;;;60.22;37.42;;;;;;;5.57;100.00;93346.41;5056130;28;20071;-75
2023/12/31 09:30:14;;;;;;;79.50;46.67;;;;;;;5.85;100.00;93347.53;5057211;28;20057;-75
2023/12/31 09:32:42;;;;;;;78.18;35.85;;;;;;;6.11;100.00;93349.63;5050342;28;21042;-75
2023/12/31 09:35:09;;;;;;;60.58;31.80;;;;;;;6.21;100.00;93349.34;5050289;28;20060;-75
2023/12/31 09:37:38;;;;;;;54.75;32.03;;;;;;;6.34;100.00;93343.59;5053233;28;20855;-74
2023/12/31 09:40:06;;;;;;;55.78;30.85;;;;;;;6.54;100.00;93337.94;5060052;28;20057;-75
2023/12/31 09:42:45;;;;;;;61.38;31.67;;;;;;;6.76;100.00;93332.84;5056164;28;20049;-74
2023/12/31 09:45:14;;;;;;;51.28;30.00;;;;;;;6.67;100.00;93304.09;5050445;28;20056;-74
2023/12/31 09:47:42;;;;;;;49.17;28.52;;;;;;;6.90;100.00;93326.84;5052614;28;20045;-74
2023/12/31 09:50:10;;;;;;;60.17;29.42;;;;;;;7.04;100.00;93321.88;5053724;28;20070;-74
2023/12/31 09:52:39;;;;;;;61.47;30.40;;;;;;;7.20;100.00;93325.91;5053368;28;20156;-74
2023/12/31 09:55:07;;;;;;;63.92;28.30;;;;;;;7.16;100.00;93322.13;5054146;28;20392;-74
2023/12/31 09:57:35;;;;;;;57.13;27.77;;;;;;;7.13;100.00;93318.19;5049492;28;20064;-74
2023/12/31 10:00:04;;;;;;;59.15;27.52;;;;;;;7.16;100.00;93294.84;5053180;28;20055;-74
2023/12/31 10:02:31;;;;;;;56.50;27.52;;;;;;;7.26;100.00;93311.63;5052047;28;20052;-74
2023/12/31 10:04:59;;;;;;;51.30;25.17;;;;;;;7.17;100.00;93309.19;5050608;28;20051;-74
2023/12/31 10:07:25;;;;;;;49.80;25.42;;;;;;;7.34;100.00;93309.72;5050631;28;20132;-73
2023/12/31 10:09:56;;;;;;;56.53;28.02;;;;;;;7.31;100.00;93292.19;5055733;28;20079;-73
2023/12/31 10:12:23;;;;;;;53.78;28.33;;;;;;;7.41;100.00;93302.06;5064629;28;20491;-73
2023/12/31 10:14:51;;;;;;;44.53;25.45;;;;;;;7.65;100.00;93299.25;5050287;28;20051;-73
2023/12/31 10:17:18;;;;;;;57.60;27.17;;;;;;;7.89;100.00;93298.00;5050837;28;20056;-73
2023/12/31 10:19:46;;;;;;;51.38;25.13;;;;;;;8.06;100.00;93290.75;5055574;28;20045;-73
2023/12/31 10:22:14;;;;;;;37.58;24.15;;;;;;;7.99;100.00;93264.38;5050505;28;20067;-73
2023/12/31 10:24:41;;;;;;;39.58;22.98;;;;;;;8.19;100.00;93292.56;5053722;28;20049;-73
2023/12/31 10:27:09;;;;;;;43.20;21.38;;;;;;;8.31;100.00;93284.34;5052706;28;20059;-74
2023/12/31 10:29:37;;;;;;;39.78;21.50;;;;;;;8.42;100.00;93283.78;5048815;28;20095;-73
2023/12/31 10:32:06;;;;;;;40.75;21.00;;;;;;;8.46;99.81;93284.97;5060609;28;20600;-73
2023/12/31 10:34:33;;;;;;;35.17;19.65;;;;;;;8.61;100.00;93287.38;5052450;28;20045;-73
2023/12/31 10:37:06;;;;;;;37.15;18.83;;;;;;;8.67;98.84;93270.47;5057307;28;20529;-73
2023/12/31 10:39:34;;;;;;;43.80;18.38;;;;;;;8.58;98.68;93243.47;5056045;28;20048;-73
2023/12/31 10:42:03;;;;;;;34.72;18.60;;;;;;;8.79;97.41;93271.44;5053252;28;20071;-73
2023/12/31 10:44:33;;;;;;;32.58;18.45;;;;;;;8.78;98.40;93264.75;5051665;28;20089;-73
2023/12/31 10:47:04;;;;;;;30.90;16.00;;;;;;;9.07;96.61;93267.88;5053387;28;20048;-73
2023/12/31 10:49:33;;;;;;;28.80;14.32;;;;;;;9.11;94.28;93263.16;5056082;28;20482;-73
2023/12/31 10:52:03;;;;;;;28.65;15.57;;;;;;;8.91;96.03;93235.78;5056964;28;20053;-73
2023/12/31 10:54:43;;;;;;;29.02;15.63;;;;;;;9.13;96.91;93245.81;5051950;28;20071;-74
2023/12/31 10:57:11;;;;;;;29.50;15.60;;;;;;;9.37;95.97;93246.16;5049130;28;21602;-74
2023/12/31 10:59:41;;;;;;;29.60;15.40;;;;;;;9.45;94.50;93247.72;5055259;28;20055;-74
2023/12/31 11:02:16;;;;;;;31.70;15.35;;;;;;;9.47;95.61;93243.97;5055963;28;20076;-73
2023/12/31 11:04:45;;;;;;;29.92;16.40;;;;;;;9.62;90.75;93232.66;5053519;28;20048;-74
2023/12/31 11:07:14;;;;;;;25.38;14.63;;;;;;;9.62;90.87;93227.53;5054814;28;20052;-73
2023/12/31 11:09:42;;;;;;;30.48;15.63;;;;;;;9.98;94.61;93233.91;5058699;28;20139;-74
2023/12/31 11:12:09;;;;;;;27.45;14.25;;;;;;;10.06;91.52;93227.75;5059386;28;20067;-74
2023/12/31 11:14:43;;;;;;;29.15;15.98;;;;;;;10.22;92.02;93220.53;5054601;28;20057;-74
2023/12/31 11:17:24;;;;;;;25.10;13.73;;;;;;;10.15;89.15;93215.47;5049246;28;20473;-74
2023/12/31 11:20:11;;;;;;;32.92;21.67;;;;;;;10.26;89.69;93199.41;5054044;28;20048;-74